Time;durP1;ratioP1;P1;durP2;ratioP2;P2;SDS_P1;SDS_P2;PMS_P1;PMS_P2;Temp;Humidity;BMP_temperature;BMP_pressure;BME280_temperature;BME280_humidity;BME280_pressure;Samples;Min_cycle;Max_cycle;Signal;HPM_P1;HPM_P2
2022/07/30 00:03:17;;;;;;;;;;;;;;;24.08;50.16;95727.19;10243226;28;1870;-68
2022/07/30 00:08:17;;;;;;;;;;;;;;;24.06;49.85;95724.06;10243237;28;1956;-68
2022/07/30 00:13:18;;;;;;;;;;;;;;;24.07;49.97;95725.63;10237113;28;1834;-68
2022/07/30 00:18:18;;;;;;;;;;;;;;;24.06;49.71;95708.97;10238557;28;1872;-68
2022/07/30 00:23:19;;;;;;;;;;;;;;;24.07;49.85;95723.75;10246365;28;2238;-68
2022/07/30 00:28:19;;;;;;;;;;;;;;;24.03;49.76;95720.13;10243835;28;1962;-68
2022/07/30 00:33:19;;;;;;;;;;;;;;;24.04;49.93;95713.78;10258766;28;1852;-68
2022/07/30 00:38:20;;;;;;;;;;;;;;;24.04;49.94;95700.53;10238843;28;2013;-68
2022/07/30 00:43:20;;;;;;;;;;;;;;;24.05;49.61;95696.03;10244131;28;1970;-68
2022/07/30 00:48:20;;;;;;;;;;;;;;;24.05;49.73;95707.38;10240695;28;1959;-68
2022/07/30 00:53:21;;;;;;;;;;;;;;;24.06;49.54;95698.38;10242974;28;2019;-69
2022/07/30 00:58:21;;;;;;;;;;;;;;;24.04;49.81;95694.44;10243546;28;1915;-69
2022/07/30 01:03:21;;;;;;;;;;;;;;;24.04;49.66;95705.81;10243286;28;1953;-68
2022/07/30 01:08:22;;;;;;;;;;;;;;;24.03;49.60;95695.47;10242587;28;1997;-68
2022/07/30 01:13:22;;;;;;;;;;;;;;;24.04;49.80;95694.44;10237283;28;1965;-68
2022/07/30 01:23:58;;;;;;;;;;;;;;;24.04;49.69;95689.16;10239653;28;2272;-68
2022/07/30 01:28:59;;;;;;;;;;;;;;;24.04;49.49;95684.66;10255649;28;1988;-68
2022/07/30 01:34:02;;;;;;;;;;;;;;;24.04;49.52;95678.56;10237936;28;1957;-69
2022/07/30 01:39:05;;;;;;;;;;;;;;;24.04;49.38;95679.34;10237291;28;1892;-67
2022/07/30 01:44:17;;;;;;;;;;;;;;;24.05;49.54;95680.13;10237539;28;1974;-68
2022/07/30 01:49:17;;;;;;;;;;;;;;;24.06;49.39;95682.47;10254726;28;1955;-68
2022/07/30 01:54:17;;;;;;;;;;;;;;;24.04;49.52;95682.00;10252944;28;1926;-68
2022/07/30 01:59:18;;;;;;;;;;;;;;;24.05;49.44;95683.53;10237485;28;2025;-68
2022/07/30 02:04:19;;;;;;;;;;;;;;;24.03;49.41;95677.75;10237947;28;1935;-68
2022/07/30 02:09:21;;;;;;;;;;;;;;;24.05;49.43;95680.13;10238133;28;1918;-68
2022/07/30 02:14:27;;;;;;;;;;;;;;;24.04;48.96;95671.41;10247958;28;2056;-68
2022/07/30 02:19:31;;;;;;;;;;;;;;;24.04;49.22;95682.00;10234143;28;1965;-68
2022/07/30 02:24:32;;;;;;;;;;;;;;;24.03;49.31;95688.34;10239429;28;2091;-68
2022/07/30 02:29:33;;;;;;;;;;;;;;;24.05;49.33;95685.44;10235877;28;2328;-68
2022/07/30 02:34:34;;;;;;;;;;;;;;;24.05;49.33;95683.53;10241768;28;1914;-68
2022/07/30 02:39:35;;;;;;;;;;;;;;;24.03;49.10;95693.66;10226280;28;1984;-68
2022/07/30 02:44:35;;;;;;;;;;;;;;;24.02;49.03;95694.72;10240078;28;1936;-68
2022/07/30 02:49:37;;;;;;;;;;;;;;;24.01;49.26;95685.19;10222849;29;1977;-69
2022/07/30 02:54:38;;;;;;;;;;;;;;;24.01;49.10;95679.91;10250932;28;2053;-68
2022/07/30 02:59:39;;;;;;;;;;;;;;;24.02;49.12;95678.84;10238533;28;1971;-68
2022/07/30 03:04:39;;;;;;;;;;;;;;;24.01;49.23;95669.31;10254940;28;1959;-68
2022/07/30 03:09:40;;;;;;;;;;;;;;;24.01;48.80;95669.31;10235299;29;1939;-68
2022/07/30 03:14:41;;;;;;;;;;;;;;;24.02;49.01;95668.25;10238850;28;2032;-69
2022/07/30 03:19:41;;;;;;;;;;;;;;;24.02;49.04;95664.81;10231929;29;1922;-68
2022/07/30 03:24:42;;;;;;;;;;;;;;;24.02;48.97;95675.38;10236898;28;1941;-68
2022/07/30 03:29:42;;;;;;;;;;;;;;;24.01;48.92;95674.59;10236087;28;1942;-69
2022/07/30 03:34:43;;;;;;;;;;;;;;;24.00;48.95;95675.69;10233861;28;1968;-68
2022/07/30 03:39:43;;;;;;;;;;;;;;;24.01;48.77;95681.75;10250745;28;1981;-68
2022/07/30 03:44:44;;;;;;;;;;;;;;;24.00;48.73;95681.00;10230924;29;2039;-69
2022/07/30 03:49:45;;;;;;;;;;;;;;;24.00;48.67;95686.28;10232484;28;1987;-69
2022/07/30 03:54:46;;;;;;;;;;;;;;;23.99;48.79;95684.72;10236905;28;1893;-69
2022/07/30 03:59:47;;;;;;;;;;;;;;;24.00;48.56;95698.72;10239174;28;1893;-69
2022/07/30 04:04:47;;;;;;;;;;;;;;;23.99;48.78;95708.53;10246165;28;1984;-69
2022/07/30 04:09:48;;;;;;;;;;;;;;;24.00;48.62;95711.97;10242814;28;1960;-69
2022/07/30 04:14:48;;;;;;;;;;;;;;;23.99;48.75;95724.41;10243551;28;1972;-69
2022/07/30 04:19:50;;;;;;;;;;;;;;;23.99;48.90;95724.41;10257120;28;1928;-68
2022/07/30 04:24:51;;;;;;;;;;;;;;;23.97;48.56;95734.53;10241800;28;1983;-69
2022/07/30 04:29:51;;;;;;;;;;;;;;;23.97;48.64;95739.03;10236097;28;2087;-69
2022/07/30 04:34:52;;;;;;;;;;;;;;;23.95;48.74;95749.91;10238684;28;2053;-69
2022/07/30 04:39:53;;;;;;;;;;;;;;;23.94;48.49;95753.66;10241736;28;2069;-69
2022/07/30 04:44:54;;;;;;;;;;;;;;;23.94;48.63;95753.66;10240687;28;1914;-69
2022/07/30 04:49:54;;;;;;;;;;;;;;;23.94;48.68;95756.31;10236117;28;1922;-69
2022/07/30 04:54:55;;;;;;;;;;;;;;;23.95;48.58;95749.91;10239953;28;1941;-69
2022/07/30 04:59:55;;;;;;;;;;;;;;;23.96;48.79;95751.50;10254453;28;1983;-69
2022/07/30 05:04:56;;;;;;;;;;;;;;;23.97;48.56;95763.66;10241612;28;1974;-69
2022/07/30 05:09:56;;;;;;;;;;;;;;;23.98;48.74;95754.63;10239877;28;1977;-69
2022/07/30 05:14:57;;;;;;;;;;;;;;;23.99;48.47;95752.75;10236352;28;2028;-68
2022/07/30 05:19:57;;;;;;;;;;;;;;;23.99;48.78;95758.84;10245710;28;1966;-69
2022/07/30 05:24:57;;;;;;;;;;;;;;;23.99;48.79;95764.13;10239279;28;1905;-68
2022/07/30 05:29:58;;;;;;;;;;;;;;;23.74;48.34;95769.91;10239832;28;1934;-70
2022/07/30 05:34:58;;;;;;;;;;;;;;;23.12;49.57;95775.75;10233958;28;2361;-71
2022/07/30 05:39:58;;;;;;;;;;;;;;;22.71;50.59;95772.91;10244739;28;2020;-72
2022/07/30 05:44:59;;;;;;;;;;;;;;;22.43;51.42;95785.16;10234508;28;1964;-72
2022/07/30 05:49:59;;;;;;;;;;;;;;;22.26;51.81;95782.19;10238556;28;1984;-69
2022/07/30 05:54:59;;;;;;;;;;;;;;;22.23;52.22;95785.41;10240035;28;2241;-69
2022/07/30 06:00:00;;;;;;;;;;;;;;;22.10;52.48;95788.72;10253762;28;1898;-68
2022/07/30 06:05:00;;;;;;;;;;;;;;;22.06;52.32;95787.72;10237779;28;1956;-68
2022/07/30 06:10:00;;;;;;;;;;;;;;;21.83;52.47;95799.84;10236186;28;1941;-69
2022/07/30 06:15:01;;;;;;;;;;;;;;;21.88;52.52;95805.06;10233298;28;2051;-66
2022/07/30 06:20:01;;;;;;;;;;;;;;;21.74;52.92;95812.03;10228814;28;1964;-67
2022/07/30 06:25:02;;;;;;;;;;;;;;;21.73;53.36;95817.59;10235444;28;2001;-69
2022/07/30 06:30:03;;;;;;;;;;;;;;;21.64;53.54;95814.78;10225704;28;1929;-69
2022/07/30 06:35:03;;;;;;;;;;;;;;;21.70;53.72;95820.81;10228127;28;2012;-72
2022/07/30 06:40:05;;;;;;;;;;;;;;;21.91;53.69;95831.97;10228490;28;1932;-73
2022/07/30 06:45:05;;;;;;;;;;;;;;;22.08;53.01;95838.38;10227784;28;1921;-72
2022/07/30 06:50:06;;;;;;;;;;;;;;;22.20;52.67;95841.41;10229761;28;1987;-72
2022/07/30 06:55:07;;;;;;;;;;;;;;;22.21;53.05;95840.38;10245943;28;1996;-72
2022/07/30 07:00:12;;;;;;;;;;;;;;;22.33;52.66;95846.03;10235662;28;1953;-73
2022/07/30 07:05:12;;;;;;;;;;;;;;;22.37;52.37;95844.41;10235358;28;1977;-73
2022/07/30 07:10:12;;;;;;;;;;;;;;;22.35;52.78;95849.16;10233552;28;1964;-72
2022/07/30 07:15:13;;;;;;;;;;;;;;;22.39;52.62;95844.09;10236089;28;1989;-72
2022/07/30 07:20:14;;;;;;;;;;;;;;;22.39;52.59;95849.38;10236751;28;1918;-72
2022/07/30 07:25:15;;;;;;;;;;;;;;;22.48;52.51;95847.69;10238376;28;2060;-73
2022/07/30 07:30:15;;;;;;;;;;;;;;;22.56;52.50;95847.88;10233469;28;2047;-73
2022/07/30 07:35:15;;;;;;;;;;;;;;;22.63;52.33;95848.31;10236450;28;1947;-73
2022/07/30 07:40:15;;;;;;;;;;;;;;;22.64;52.25;95841.19;10258561;28;1961;-73
2022/07/30 07:45:16;;;;;;;;;;;;;;;22.65;51.78;95838.25;10240169;28;1985;-73
2022/07/30 07:50:16;;;;;;;;;;;;;;;22.71;51.77;95832.91;10235775;28;1911;-72
2022/07/30 07:55:17;;;;;;;;;;;;;;;22.75;52.10;95836.56;10238202;28;1917;-71
2022/07/30 08:00:17;;;;;;;;;;;;;;;22.75;51.69;95826.75;10238762;28;1945;-71
2022/07/30 08:05:18;;;;;;;;;;;;;;;22.80;51.56;95826.69;10258130;28;2048;-71
2022/07/30 08:10:18;;;;;;;;;;;;;;;22.88;51.64;95833.19;10242308;28;1921;-72
2022/07/30 08:15:19;;;;;;;;;;;;;;;22.86;51.39;95837.97;10253985;28;1902;-71
2022/07/30 08:20:21;;;;;;;;;;;;;;;22.83;50.87;95844.63;10237336;28;1834;-72
2022/07/30 08:25:22;;;;;;;;;;;;;;;22.76;50.78;95846.84;10238028;28;1906;-72
2022/07/30 08:30:22;;;;;;;;;;;;;;;22.76;51.09;95841.56;10238767;28;1974;-71
2022/07/30 08:35:22;;;;;;;;;;;;;;;22.83;50.92;95849.13;10241656;28;1956;-70
2022/07/30 08:40:24;;;;;;;;;;;;;;;22.85;50.59;95845.13;10242770;28;1853;-70
2022/07/30 08:45:24;;;;;;;;;;;;;;;22.85;50.73;95842.50;10241975;28;1977;-70
2022/07/30 08:50:25;;;;;;;;;;;;;;;22.88;50.08;95838.47;10222739;28;1992;-70
2022/07/30 08:55:25;;;;;;;;;;;;;;;22.84;49.82;95835.63;10256119;28;1956;-69
2022/07/30 09:00:25;;;;;;;;;;;;;;;22.85;49.64;95852.28;10236908;28;2019;-70
2022/07/30 09:05:27;;;;;;;;;;;;;;;22.96;49.18;95838.63;10240148;28;2031;-69
2022/07/30 09:10:27;;;;;;;;;;;;;;;22.95;49.11;95845.00;10236918;28;1985;-69
2022/07/30 09:15:28;;;;;;;;;;;;;;;22.97;48.90;95849.97;10239918;28;2037;-70
2022/07/30 09:20:29;;;;;;;;;;;;;;;23.01;48.73;95835.13;10233470;28;1933;-69
2022/07/30 09:25:37;;;;;;;;;;;;;;;23.05;48.56;95844.06;10237398;28;1933;-70
2022/07/30 09:30:45;;;;;;;;;;;;;;;23.14;48.06;95839.69;10239945;28;2028;-70
2022/07/30 09:35:45;;;;;;;;;;;;;;;23.12;47.45;95844.50;10236587;28;1965;-70
2022/07/30 09:40:50;;;;;;;;;;;;;;;23.12;47.56;95847.91;10250112;28;1927;-70
2022/07/30 09:45:51;;;;;;;;;;;;;;;23.18;47.27;95845.97;10239902;28;1878;-67
2022/07/30 09:50:51;;;;;;;;;;;;;;;23.23;47.03;95828.16;10235728;28;1981;-70
2022/07/30 09:55:51;;;;;;;;;;;;;;;23.21;46.51;95834.81;10231143;28;1976;-67
2022/07/30 10:00:57;;;;;;;;;;;;;;;23.24;46.08;95850.91;10253086;28;1961;-68
2022/07/30 10:05:58;;;;;;;;;;;;;;;23.25;46.22;95838.44;10240273;28;2024;-70
2022/07/30 10:10:58;;;;;;;;;;;;;;;23.25;45.87;95833.94;10236258;28;2045;-69
2022/07/30 10:15:59;;;;;;;;;;;;;;;23.32;45.33;95834.41;10248356;28;1922;-69
2022/07/30 10:21:00;;;;;;;;;;;;;;;23.28;45.56;95838.69;10231517;28;1976;-69
2022/07/30 10:26:00;;;;;;;;;;;;;;;23.32;45.20;95841.56;10235927;28;1960;-69
2022/07/30 10:31:01;;;;;;;;;;;;;;;23.35;45.51;95847.03;10236481;28;1977;-68
2022/07/30 10:36:02;;;;;;;;;;;;;;;23.37;43.41;95841.47;10235178;28;1929;-69
2022/07/30 10:41:04;;;;;;;;;;;;;;;23.39;44.10;95837.47;10237246;28;2024;-68
2022/07/30 10:46:23;;;;;;;;;;;;;;;23.40;42.29;95832.97;10237971;28;1858;-68
2022/07/30 10:51:41;;;;;;;;;;;;;;;23.42;43.00;95839.53;10237042;28;1983;-67
2022/07/30 10:56:42;;;;;;;;;;;;;;;23.43;42.43;95835.03;10236475;28;1960;-68
2022/07/30 11:01:46;;;;;;;;;;;;;;;23.45;41.03;95835.53;10231811;28;1906;-68
2022/07/30 11:06:47;;;;;;;;;;;;;;;23.46;41.01;95837.09;10252855;28;1985;-68
2022/07/30 11:11:50;;;;;;;;;;;;;;;23.44;40.67;95829.44;10250352;28;2047;-68
2022/07/30 11:16:50;;;;;;;;;;;;;;;23.50;40.36;95840.72;10243705;28;1941;-69
2022/07/30 11:22:10;;;;;;;;;;;;;;;23.46;40.05;95842.38;10246064;28;2324;-69
2022/07/30 11:27:30;;;;;;;;;;;;;;;23.49;40.41;95833.09;10242889;28;1901;-69
2022/07/30 11:32:31;;;;;;;;;;;;;;;23.53;40.53;95834.88;10243733;28;1949;-69
2022/07/30 11:37:31;;;;;;;;;;;;;;;23.53;40.02;95829.59;10239658;28;1953;-68
2022/07/30 11:42:32;;;;;;;;;;;;;;;23.55;40.49;95830.06;10238875;28;1972;-68
2022/07/30 11:47:32;;;;;;;;;;;;;;;23.57;40.08;95835.88;10235702;28;1934;-68
2022/07/30 11:52:33;;;;;;;;;;;;;;;23.62;39.68;95848.22;10242171;28;1978;-67
2022/07/30 11:57:40;;;;;;;;;;;;;;;23.63;39.69;95834.69;10241005;28;2043;-68
2022/07/30 12:02:40;;;;;;;;;;;;;;;23.62;39.31;95835.75;10240042;28;1937;-65
2022/07/30 12:07:40;;;;;;;;;;;;;;;23.64;39.35;95830.97;10252369;28;1962;-68
2022/07/30 12:12:41;;;;;;;;;;;;;;;23.66;38.96;95834.09;10240151;28;1965;-68
2022/07/30 12:17:41;;;;;;;;;;;;;;;23.71;38.23;95822.66;10239956;28;1956;-68
2022/07/30 12:22:42;;;;;;;;;;;;;;;23.70;38.68;95826.38;10238038;28;1975;-68
2022/07/30 12:27:48;;;;;;;;;;;;;;;23.72;39.41;95837.47;10236693;28;1968;-68
2022/07/30 12:32:50;;;;;;;;;;;;;;;23.76;39.12;95831.28;10237562;28;1926;-68
2022/07/30 12:38:00;;;;;;;;;;;;;;;23.77;39.45;95838.16;10237216;28;1909;-68
2022/07/30 12:43:02;;;;;;;;;;;;;;;23.79;38.79;95828.06;10239551;28;2081;-67
2022/07/30 12:48:02;;;;;;;;;;;;;;;23.81;36.87;95822.47;10232281;28;1964;-68
2022/07/30 12:53:03;;;;;;;;;;;;;;;23.74;37.20;95828.13;10248835;28;1940;-69
2022/07/30 12:58:04;;;;;;;;;;;;;;;23.77;36.93;95827.56;10254544;28;1961;-69
2022/07/30 13:03:15;;;;;;;;;;;;;;;23.77;38.68;95816.97;10257155;28;2019;-63
2022/07/30 13:08:15;;;;;;;;;;;;;;;23.84;39.75;95820.03;10240628;28;1960;-62
2022/07/30 13:13:16;;;;;;;;;;;;;;;23.89;40.37;95825.22;10240292;28;2089;-63
2022/07/30 13:18:17;;;;;;;;;;;;;;;23.97;40.73;95827.19;10241481;28;1952;-63
2022/07/30 13:23:17;;;;;;;;;;;;;;;24.04;41.42;95827.63;10242440;28;2015;-63
2022/07/30 13:28:17;;;;;;;;;;;;;;;24.06;41.57;95819.38;10241518;28;1945;-63
2022/07/30 13:33:18;;;;;;;;;;;;;;;24.07;41.65;95816.44;10238707;28;1902;-63
2022/07/30 13:38:19;;;;;;;;;;;;;;;24.10;41.94;95821.16;10240223;28;1972;-63
2022/07/30 13:43:20;;;;;;;;;;;;;;;24.10;42.04;95815.06;10253710;28;1940;-63
2022/07/30 13:48:20;;;;;;;;;;;;;;;24.11;42.17;95819.31;10236418;28;1935;-63
2022/07/30 13:53:20;;;;;;;;;;;;;;;24.12;41.94;95818.22;10234810;28;1944;-63
2022/07/30 13:58:21;;;;;;;;;;;;;;;24.14;42.38;95811.56;10238480;28;1861;-63
2022/07/30 14:03:21;;;;;;;;;;;;;;;24.13;42.39;95806.56;10234558;28;2057;-63
2022/07/30 14:08:21;;;;;;;;;;;;;;;24.13;42.39;95806.56;10236620;28;2137;-63
2022/07/30 14:13:22;;;;;;;;;;;;;;;24.11;42.27;95812.13;10235146;28;1941;-63
2022/07/30 14:18:22;;;;;;;;;;;;;;;24.12;42.35;95807.63;10239813;28;1949;-63
2022/07/30 14:23:22;;;;;;;;;;;;;;;24.11;42.59;95801.53;10233213;28;2020;-63
2022/07/30 14:28:23;;;;;;;;;;;;;;;24.12;42.56;95802.31;10231805;28;1907;-64
2022/07/30 14:33:23;;;;;;;;;;;;;;;24.13;42.49;95796.72;10230655;28;1959;-63
2022/07/30 14:38:24;;;;;;;;;;;;;;;24.13;42.70;95794.06;10233206;29;2061;-63
2022/07/30 14:43:26;;;;;;;;;;;;;;;24.14;42.57;95786.94;10227026;28;1988;-63
2022/07/30 14:48:27;;;;;;;;;;;;;;;24.15;42.81;95796.44;10226548;28;2289;-63
2022/07/30 14:53:28;;;;;;;;;;;;;;;24.14;42.56;95790.38;10237332;28;1905;-63
2022/07/30 14:58:28;;;;;;;;;;;;;;;24.15;42.65;95781.31;10248845;28;1834;-63
2022/07/30 15:03:28;;;;;;;;;;;;;;;24.18;42.75;95786.03;10225773;28;1805;-63
2022/07/30 15:08:29;;;;;;;;;;;;;;;24.21;42.88;95774.09;10245541;28;2010;-63
2022/07/30 15:13:29;;;;;;;;;;;;;;;24.21;43.07;95780.13;10228688;28;1837;-64
2022/07/30 15:18:29;;;;;;;;;;;;;;;24.22;43.21;95783.59;10232634;28;1841;-63
2022/07/30 15:23:30;;;;;;;;;;;;;;;24.23;43.09;95787.81;10235146;28;1869;-63
2022/07/30 15:28:30;;;;;;;;;;;;;;;24.20;43.06;95791.84;10234452;28;1934;-62
2022/07/30 15:33:31;;;;;;;;;;;;;;;24.19;42.76;95792.91;10250362;28;1735;-63
2022/07/30 15:38:32;;;;;;;;;;;;;;;24.18;42.56;95791.34;10231029;28;1782;-63
2022/07/30 15:43:32;;;;;;;;;;;;;;;24.17;42.62;95789.00;10235805;28;1783;-63
2022/07/30 15:48:33;;;;;;;;;;;;;;;24.17;42.48;95787.09;10234179;28;1922;-63
2022/07/30 15:53:33;;;;;;;;;;;;;;;24.17;42.88;95779.16;10232420;28;2055;-63
2022/07/30 15:58:34;;;;;;;;;;;;;;;24.20;42.93;95777.78;10241582;28;1837;-64
2022/07/30 16:03:35;;;;;;;;;;;;;;;24.21;42.92;95774.84;10239683;28;1802;-65
2022/07/30 16:08:35;;;;;;;;;;;;;;;24.23;42.70;95770.03;10259907;28;1910;-64
2022/07/30 16:13:36;;;;;;;;;;;;;;;24.21;42.95;95779.38;10252061;28;1819;-64
2022/07/30 16:18:36;;;;;;;;;;;;;;;24.19;42.58;95784.94;10255665;28;1849;-65
2022/07/30 16:23:37;;;;;;;;;;;;;;;24.18;42.61;95788.69;10241134;28;1826;-65
2022/07/30 16:28:38;;;;;;;;;;;;;;;24.15;42.22;95780.56;10241087;28;1961;-65
2022/07/30 16:33:39;;;;;;;;;;;;;;;24.15;42.43;95781.31;10219323;29;1852;-64
2022/07/30 16:38:39;;;;;;;;;;;;;;;24.15;41.93;95786.63;10251811;28;1854;-62
2022/07/30 16:43:39;;;;;;;;;;;;;;;24.14;42.26;95782.41;10238550;28;1810;-62
2022/07/30 16:48:40;;;;;;;;;;;;;;;24.13;41.96;95783.47;10238845;28;1914;-65
2022/07/30 16:53:41;;;;;;;;;;;;;;;24.13;41.69;95782.72;10238761;28;1806;-65
2022/07/30 16:58:41;;;;;;;;;;;;;;;24.14;41.90;95792.22;10241684;28;1821;-65
2022/07/30 17:03:41;;;;;;;;;;;;;;;24.14;41.89;95787.72;10235989;28;1888;-62
2022/07/30 17:08:42;;;;;;;;;;;;;;;24.14;41.73;95795.66;10238636;28;1902;-65
2022/07/30 17:13:43;;;;;;;;;;;;;;;24.13;41.54;95807.31;10234614;28;1844;-65
2022/07/30 17:18:44;;;;;;;;;;;;;;;24.10;40.86;95810.56;10238066;28;1824;-62
2022/07/30 17:23:45;;;;;;;;;;;;;;;24.06;40.39;95817.53;10240107;28;1911;-65
2022/07/30 17:28:46;;;;;;;;;;;;;;;24.01;39.82;95808.84;10229667;29;1918;-62
2022/07/30 17:33:47;;;;;;;;;;;;;;;24.00;39.80;95813.38;10239123;28;1844;-63
2022/07/30 17:38:47;;;;;;;;;;;;;;;24.02;40.41;95821.81;10245735;28;1853;-65
2022/07/30 17:43:48;;;;;;;;;;;;;;;24.05;40.74;95825.78;10255255;28;1807;-65
2022/07/30 17:48:48;;;;;;;;;;;;;;;24.07;41.06;95832.34;10237044;28;1906;-62
2022/07/30 17:53:48;;;;;;;;;;;;;;;24.10;41.07;95836.25;10232475;28;1774;-62
2022/07/30 17:58:49;;;;;;;;;;;;;;;24.12;41.18;95836.75;10237983;28;1808;-62
2022/07/30 18:03:49;;;;;;;;;;;;;;;24.12;41.50;95837.53;10232064;28;1880;-62
2022/07/30 18:08:50;;;;;;;;;;;;;;;24.15;41.81;95842.25;10240098;28;2002;-65
2022/07/30 18:13:50;;;;;;;;;;;;;;;24.15;41.60;95844.88;10239004;29;1619;-65
2022/07/30 18:18:51;;;;;;;;;;;;;;;24.15;41.63;95839.59;10232793;28;2360;-62
2022/07/30 18:23:52;;;;;;;;;;;;;;;24.15;41.45;95844.13;10233912;28;2080;-62
2022/07/30 18:28:52;;;;;;;;;;;;;;;24.14;41.75;95859.22;10236848;28;2092;-65
2022/07/30 18:33:52;;;;;;;;;;;;;;;24.16;41.30;95853.63;10235123;28;2180;-62
2022/07/30 18:38:53;;;;;;;;;;;;;;;24.15;41.38;95866.06;10237650;28;1861;-64
2022/07/30 18:43:53;;;;;;;;;;;;;;;24.19;41.76;95880.31;10242188;28;1876;-64
2022/07/30 18:48:53;;;;;;;;;;;;;;;24.21;42.16;95895.94;10235534;28;1970;-64
2022/07/30 18:53:54;;;;;;;;;;;;;;;24.24;42.07;95897.97;10237323;28;2048;-64
2022/07/30 18:58:54;;;;;;;;;;;;;;;24.27;42.20;95892.09;10236453;28;1871;-64
2022/07/30 19:03:55;;;;;;;;;;;;;;;24.29;42.25;95897.09;10234748;28;1907;-65
2022/07/30 19:08:55;;;;;;;;;;;;;;;24.28;42.68;95904.25;10237637;28;2073;-63
2022/07/30 19:13:56;;;;;;;;;;;;;;;24.31;42.73;95897.59;10234777;28;1892;-64
2022/07/30 19:18:56;;;;;;;;;;;;;;;24.32;43.02;95901.81;10229516;28;1907;-64
2022/07/30 19:23:56;;;;;;;;;;;;;;;24.32;42.81;95899.94;10234840;28;1889;-64
2022/07/30 19:28:57;;;;;;;;;;;;;;;24.32;43.03;95912.41;10237969;28;1968;-64
2022/07/30 19:33:57;;;;;;;;;;;;;;;24.30;43.08;95901.34;10238699;28;1916;-64
2022/07/30 19:38:57;;;;;;;;;;;;;;;24.33;43.00;95909.47;10235172;28;1856;-64
2022/07/30 19:43:59;;;;;;;;;;;;;;;24.33;43.40;95916.63;10236892;28;1939;-64
2022/07/30 19:48:59;;;;;;;;;;;;;;;24.35;43.33;95923.22;10237351;28;2543;-65
2022/07/30 19:54:00;;;;;;;;;;;;;;;24.34;43.19;95918.22;10237324;28;1894;-65
2022/07/30 19:59:03;;;;;;;;;;;;;;;24.36;43.52;95919.47;10252822;28;1818;-67
2022/07/30 20:04:04;;;;;;;;;;;;;;;24.08;43.90;95931.91;10255805;28;1852;-66
2022/07/30 20:09:04;;;;;;;;;;;;;;;23.94;44.53;95928.41;10233645;28;1908;-68
2022/07/30 20:14:05;;;;;;;;;;;;;;;23.80;44.92;95924.91;10237541;28;1870;-67
2022/07/30 20:19:06;;;;;;;;;;;;;;;23.72;45.15;95930.88;10248564;28;1898;-68
2022/07/30 20:24:07;;;;;;;;;;;;;;;23.60;45.51;95929.75;10223407;28;1988;-68
2022/07/30 20:29:07;;;;;;;;;;;;;;;23.44;46.73;95929.19;10235801;28;1935;-67
2022/07/30 20:34:08;;;;;;;;;;;;;;;;;;10246559;28;1877;-66
2022/07/30 20:39:08;;;;;;;;;;;;;;;23.28;48.24;95928.59;10237160;28;1867;-67
2022/07/30 20:44:08;;;;;;;;;;;;;;;23.20;48.95;95925.81;10232684;28;1840;-67
2022/07/30 20:49:08;;;;;;;;;;;;;;;23.12;49.55;95937.03;10234787;28;1974;-66
2022/07/30 20:54:10;;;;;;;;;;;;;;;23.09;49.59;95956.09;10241982;28;1945;-67
2022/07/30 20:59:10;;;;;;;;;;;;;;;22.98;49.83;95952.03;10240701;28;1884;-69
2022/07/30 21:04:10;;;;;;;;;;;;;;;22.91;50.57;95954.22;10237565;28;1786;-69
2022/07/30 21:09:11;;;;;;;;;;;;;;;22.84;50.57;95954.56;10252583;28;2180;-69
2022/07/30 21:14:12;;;;;;;;;;;;;;;22.77;50.99;95950.69;10251030;28;1843;-67
2022/07/30 21:19:16;;;;;;;;;;;;;;;22.76;50.94;95955.19;10236620;28;1899;-67
2022/07/30 21:24:20;;;;;;;;;;;;;;;22.89;50.54;95969.56;10245180;28;1855;-66
2022/07/30 21:29:21;;;;;;;;;;;;;;;22.98;50.07;95973.94;10240645;29;1964;-67
2022/07/30 21:34:21;;;;;;;;;;;;;;;22.94;50.19;95964.22;10241676;28;1818;-67
2022/07/30 21:39:21;;;;;;;;;;;;;;;22.93;50.19;95960.00;10239191;28;1850;-67
2022/07/30 21:44:22;;;;;;;;;;;;;;;22.84;50.30;95966.97;10236421;28;1833;-68
2022/07/30 21:49:22;;;;;;;;;;;;;;;22.85;50.24;95968.56;10231050;28;1906;-67
2022/07/30 21:54:22;;;;;;;;;;;;;;;22.81;50.14;95970.19;10231832;28;1888;-67
2022/07/30 21:59:23;;;;;;;;;;;;;;;22.89;50.23;95965.09;10240810;28;1862;-67
2022/07/30 22:04:23;;;;;;;;;;;;;;;22.75;50.46;95966.81;10235900;28;1865;-67
2022/07/30 22:09:23;;;;;;;;;;;;;;;22.58;50.83;95967.28;10237157;28;1910;-67
2022/07/30 22:14:24;;;;;;;;;;;;;;;22.49;51.36;95968.94;10232864;28;1884;-68
2022/07/30 22:19:24;;;;;;;;;;;;;;;22.53;51.36;95977.06;10240163;28;1758;-67
2022/07/30 22:24:24;;;;;;;;;;;;;;;22.59;51.24;95982.06;10234801;28;1834;-67
2022/07/30 22:29:25;;;;;;;;;;;;;;;22.55;51.49;95972.28;10253593;28;1898;-67
2022/07/30 22:34:25;;;;;;;;;;;;;;;22.59;51.38;95966.19;10234842;28;1844;-67
2022/07/30 22:39:25;;;;;;;;;;;;;;;22.58;51.42;95962.00;10238837;28;1890;-67
2022/07/30 22:44:27;;;;;;;;;;;;;;;22.52;51.13;95957.78;10232296;28;1853;-67
2022/07/30 22:49:28;;;;;;;;;;;;;;;22.42;51.46;95955.25;10234438;28;1979;-67
2022/07/30 22:54:28;;;;;;;;;;;;;;;22.37;51.46;95951.88;10235291;28;1842;-67
2022/07/30 22:59:28;;;;;;;;;;;;;;;22.29;51.29;95955.94;10235724;29;1783;-68
2022/07/30 23:04:29;;;;;;;;;;;;;;;22.24;51.51;95952.53;10238527;28;1810;-66
2022/07/30 23:09:29;;;;;;;;;;;;;;;22.25;51.39;95962.84;10238651;28;1907;-67
2022/07/30 23:14:29;;;;;;;;;;;;;;;22.38;51.13;95967.44;10229357;28;1892;-67
2022/07/30 23:19:30;;;;;;;;;;;;;;;22.34;50.89;95969.06;10232467;28;1839;-67
2022/07/30 23:24:30;;;;;;;;;;;;;;;22.25;51.04;95962.03;10238209;28;1861;-66
2022/07/30 23:29:31;;;;;;;;;;;;;;;22.21;50.74;95961.81;10232964;28;1918;-66
2022/07/30 23:34:31;;;;;;;;;;;;;;;22.22;50.96;95963.38;10233339;28;1806;-67
2022/07/30 23:39:32;;;;;;;;;;;;;;;22.27;50.47;95963.34;10235720;28;1779;-66
2022/07/30 23:44:32;;;;;;;;;;;;;;;22.36;50.38;95956.38;10234313;28;1810;-67
2022/07/30 23:49:32;;;;;;;;;;;;;;;22.33;50.30;95954.31;10234634;28;1981;-66
2022/07/30 23:54:33;;;;;;;;;;;;;;;22.29;50.67;95963.84;10233694;28;1858;-66
2022/07/30 23:59:34;;;;;;;;;;;;;;;22.30;50.50;95961.97;10230231;28;1790;-66
